Time;durP1;ratioP1;P1;durP2;ratioP2;P2;SDS_P1;SDS_P2;PMS_P1;PMS_P2;Temp;Humidity;BMP_temperature;BMP_pressure;BME280_temperature;BME280_humidity;BME280_pressure;Samples;Min_cycle;Max_cycle;Signal;HPM_P1;HPM_P2
2022/10/31 00:01:31;;;;;;;;;89.75;80.25;;;;;17.52;63.58;99973.22;5021566;28;10304;-78
2022/10/31 00:04:00;;;;;;;;;96.75;83.50;;;;;17.45;63.86;99974.25;5026342;28;10288;-78
2022/10/31 00:06:29;;;;;;;;;85.50;82.75;;;;;17.45;63.92;99976.03;4962082;28;10530;-79
2022/10/31 00:09:00;;;;;;;;;93.50;85.25;;;;;17.47;64.26;99976.84;5010777;28;10568;-75
2022/10/31 00:11:29;;;;;;;;;97.75;88.00;;;;;17.49;64.10;99980.31;5026914;28;10457;-79
2022/10/31 00:13:59;;;;;;;;;92.75;84.75;;;;;17.53;64.14;99982.00;5007479;28;10171;-78
2022/10/31 00:16:29;;;;;;;;;87.75;81.25;;;;;17.62;63.76;99992.34;5010741;28;10454;-79
2022/10/31 00:19:00;;;;;;;;;85.25;77.00;;;;;17.64;63.48;99990.53;5026990;28;9980;-79
2022/10/31 00:21:29;;;;;;;;;80.00;69.00;;;;;17.58;62.91;99982.75;5010552;28;10154;-78
2022/10/31 00:23:58;;;;;;;;;85.75;76.00;;;;;17.55;62.51;99990.72;5027137;28;9781;-82
2022/10/31 00:26:28;;;;;;;;;78.50;67.00;;;;;17.58;62.75;99987.16;4987292;28;9919;-79
2022/10/31 00:28:58;;;;;;;;;83.00;70.00;;;;;17.60;62.57;99983.59;4954923;28;9655;-78
2022/10/31 00:31:30;;;;;;;;;84.00;72.25;;;;;17.63;62.31;99983.50;4949852;28;9845;-78
2022/10/31 00:33:59;;;;;;;;;91.75;79.75;;;;;17.59;62.87;99983.63;4983348;28;9665;-79
2022/10/31 00:36:27;;;;;;;;;84.25;74.50;;;;;17.57;62.74;99983.66;4974062;28;9990;-80
2022/10/31 00:38:56;;;;;;;;;85.00;75.25;;;;;17.54;62.64;99987.22;4990914;28;9655;-78
2022/10/31 00:41:25;;;;;;;;;86.50;75.25;;;;;17.51;62.89;99983.78;5023139;28;9586;-79
2022/10/31 00:43:53;;;;;;;;;84.75;74.25;;;;;17.43;63.36;99983.97;4990489;28;10577;-79
2022/10/31 00:46:22;;;;;;;;;84.00;73.75;;;;;17.42;63.24;99984.84;5006028;28;9980;-81
2022/10/31 00:48:53;;;;;;;;;86.00;78.50;;;;;17.44;63.59;99980.41;5022039;28;9909;-80
2022/10/31 00:51:22;;;;;;;;;89.25;74.75;;;;;17.44;63.30;99982.19;5004475;28;9829;-79
2022/10/31 00:53:50;;;;;;;;;82.00;69.00;;;;;17.46;63.39;99986.50;5004138;28;10126;-79
2022/10/31 00:56:19;;;;;;;;;84.75;75.25;;;;;17.48;63.27;99992.63;5002242;28;9906;-81
2022/10/31 00:58:47;;;;;;;;;91.00;80.50;;;;;17.49;63.46;99993.50;5058605;28;9798;-79
2022/10/31 01:01:16;;;;;;;;;85.50;81.00;;;;;17.45;63.59;99987.44;5027639;28;9966;-82
2022/10/31 01:03:45;;;;;;;;;84.75;73.25;;;;;17.38;63.38;99998.16;4978297;28;10145;-80
2022/10/31 01:06:15;;;;;;;;;89.50;76.25;;;;;17.24;63.73;99999.31;5044609;28;9898;-81
2022/10/31 01:08:44;;;;;;;;;85.75;77.25;;;;;17.22;63.77;100003.75;5011210;28;9987;-81
2022/10/31 01:11:18;;;;;;;;;84.25;73.00;;;;;17.20;63.79;100002.00;5011604;28;9923;-81
2022/10/31 01:13:47;;;;;;;;;82.50;71.25;;;;;17.21;63.84;100006.41;5011340;28;9813;-80
2022/10/31 01:16:20;;;;;;;;;83.00;70.00;;;;;17.27;63.54;100006.28;5028424;28;9887;-79
2022/10/31 01:18:51;;;;;;;;;82.67;69.00;;;;;17.25;63.80;100005.44;5007344;28;9542;-84
2022/10/31 01:21:24;;;;;;;;;84.75;73.25;;;;;17.15;63.61;100004.75;5021181;28;9513;-80
2022/10/31 01:23:54;;;;;;;;;84.00;70.50;;;;;17.07;63.65;99997.00;5025117;28;9622;-79
2022/10/31 01:26:25;;;;;;;;;87.00;77.50;;;;;17.04;63.97;100004.09;5007031;28;9723;-79
2022/10/31 01:28:56;;;;;;;;;82.25;71.00;;;;;16.89;64.23;100002.63;5011455;28;9913;-78
2022/10/31 01:31:27;;;;;;;;;80.00;66.00;;;;;16.94;64.22;100000.78;5010967;28;9610;-79
2022/10/31 01:33:56;;;;;;;;;87.50;71.50;;;;;16.98;63.98;99994.56;5009646;28;9562;-80
2022/10/31 01:36:28;;;;;;;;;83.00;71.25;;;;;17.07;64.13;100004.03;5024427;28;9589;-80
2022/10/31 01:38:58;;;;;;;;;83.00;71.75;;;;;17.08;63.57;99996.09;5006632;28;9738;-80
2022/10/31 01:41:29;;;;;;;;;80.00;67.50;;;;;17.02;63.50;99995.38;5010578;28;9671;-79
2022/10/31 01:43:59;;;;;;;;;78.25;66.00;;;;;16.99;63.27;100000.69;5033249;28;9603;-78
2022/10/31 01:46:32;;;;;;;;;79.50;66.75;;;;;16.91;63.48;99995.56;5012681;28;9568;-78
2022/10/31 01:49:02;;;;;;;;;81.33;62.67;;;;;16.83;64.05;99992.22;5010708;28;9600;-80
2022/10/31 01:51:35;;;;;;;;;81.67;69.67;;;;;16.81;63.31;99997.47;5029075;28;9397;-77
2022/10/31 01:54:08;;;;;;;;;85.33;71.00;;;;;16.70;64.22;99987.13;5007800;28;9436;-79
2022/10/31 01:56:42;;;;;;;;;76.00;62.67;;;;;16.60;64.58;99989.94;5031085;28;9486;-80
2022/10/31 01:59:17;;;;;;;;;74.67;57.67;;;;;16.53;64.52;99986.56;5028404;28;9205;-79
2022/10/31 02:01:47;;;;;;;;;79.67;64.67;;;;;16.54;64.16;99989.19;5027808;28;9769;-78
2022/10/31 02:04:16;;;;;;;;;78.33;60.67;;;;;16.57;63.96;99986.47;5028720;28;9194;-79
2022/10/31 02:06:52;;;;;;;;;82.33;67.33;;;;;16.55;64.16;99979.50;5027499;28;9394;-78
2022/10/31 02:09:23;;;;;;;;;76.67;64.33;;;;;16.52;64.42;99983.09;5008370;28;10019;-79
2022/10/31 02:11:55;;;;;;;;;77.33;60.67;;;;;16.55;64.43;99975.09;5028434;28;9203;-80
2022/10/31 02:14:26;;;;;;;;;78.00;63.00;;;;;16.62;64.06;99972.38;5029838;28;9260;-79
2022/10/31 02:16:55;;;;;;;;;79.00;64.67;;;;;16.69;64.11;99968.72;5027468;28;9125;-78
2022/10/31 02:19:35;;;;;;;;;77.33;64.33;;;;;16.77;63.48;99972.97;4962319;28;9272;-79
2022/10/31 02:22:15;;;;;;;;;75.67;59.67;;;;;16.82;63.66;99974.63;4996471;28;9113;-82
2022/10/31 02:25:00;;;;;;;;;78.33;63.00;;;;;16.87;63.08;99972.81;4996135;28;9045;-81
2022/10/31 02:27:57;;;;;;;;;77.00;63.33;;;;;16.87;62.90;99975.44;5008961;28;9489;-77
2022/10/31 02:30:38;;;;;;;;;80.00;65.00;;;;;16.86;63.52;99969.31;4995711;28;9004;-79
2022/10/31 02:33:21;;;;;;;;;74.67;58.33;;;;;16.92;63.33;99974.47;5008228;28;9260;-79
2022/10/31 02:36:01;;;;;;;;;73.33;57.67;;;;;16.86;62.99;99969.31;4959812;28;9213;-76
2022/10/31 02:38:42;;;;;;;;;76.33;62.00;;;;;16.90;63.04;99968.34;5010733;28;9161;-79
2022/10/31 02:41:24;;;;;;;;;77.00;62.33;;;;;16.80;63.36;99965.88;4993515;28;9101;-78
2022/10/31 02:44:04;;;;;;;;;77.00;62.00;;;;;16.79;63.23;99969.44;5009648;28;9254;-81
2022/10/31 02:46:39;;;;;;;;;76.33;57.33;;;;;16.65;63.07;99965.28;5009871;28;9108;-80
2022/10/31 02:49:17;;;;;;;;;77.33;60.33;;;;;16.45;64.12;99973.56;4991002;28;9116;-78
2022/10/31 02:51:46;;;;;;;;;79.67;63.33;;;;;16.49;63.76;99975.22;4991623;28;9030;-78
2022/10/31 02:54:23;;;;;;;;;76.67;63.33;;;;;16.57;63.89;99986.47;4994557;28;9282;-78
2022/10/31 02:56:59;;;;;;;;;70.00;56.00;;;;;16.54;63.70;99977.75;4993009;28;9236;-78
2022/10/31 02:59:31;;;;;;;;;79.67;67.67;;;;;16.55;63.90;99985.63;5027650;28;9094;-78
2022/10/31 03:02:14;;;;;;;;;79.00;63.00;;;;;16.65;63.44;99978.44;5012956;28;9944;-77
2022/10/31 03:05:05;;;;;;;;;76.33;58.00;;;;;16.66;63.14;99979.31;5019101;28;9212;-78
2022/10/31 03:07:42;;;;;;;;;73.67;58.33;;;;;16.65;62.81;99978.44;5011261;28;9130;-79
2022/10/31 03:10:21;;;;;;;;;76.67;60.00;;;;;16.68;62.77;99980.16;5010163;28;8965;-78
2022/10/31 03:13:00;;;;;;;;;74.33;59.67;;;;;16.67;63.02;99987.22;5026397;28;9236;-79
2022/10/31 03:15:33;;;;;;;;;78.00;62.67;;;;;16.62;62.89;99989.03;5010755;28;9080;-78
2022/10/31 03:18:07;;;;;;;;;74.33;58.33;;;;;16.68;62.99;99983.66;5047029;28;9109;-79
2022/10/31 03:20:42;;;;;;;;;75.33;60.33;;;;;16.70;62.90;99978.38;4999573;28;9040;-80
2022/10/31 03:23:14;;;;;;;;;79.00;59.00;;;;;16.67;62.92;99984.56;5013885;28;9119;-77
2022/10/31 03:25:46;;;;;;;;;71.00;55.00;;;;;16.67;62.48;99984.56;5026160;28;9028;-79
2022/10/31 03:28:19;;;;;;;;;81.00;58.33;;;;;16.62;62.64;99981.16;5010621;28;9202;-80
2022/10/31 03:30:51;;;;;;;;;81.67;64.33;;;;;16.24;63.98;99987.06;5028686;28;9164;-78
2022/10/31 03:33:27;;;;;;;;;80.00;66.33;;;;;16.20;63.91;99993.28;5027767;28;9430;-79
2022/10/31 03:36:03;;;;;;;;;74.00;58.00;;;;;16.29;64.06;99993.13;5010674;28;9436;-77
2022/10/31 03:38:34;;;;;;;;;79.00;62.33;;;;;16.30;64.33;99995.75;5009828;28;9415;-77
2022/10/31 03:41:10;;;;;;;;;79.33;64.67;;;;;16.39;64.05;99997.34;4991233;28;9362;-78
2022/10/31 03:43:47;;;;;;;;;76.00;61.33;;;;;16.42;64.14;100006.94;5010655;28;9055;-79
2022/10/31 03:46:16;;;;;;;;;77.00;61.00;;;;;16.46;64.29;99998.09;5025915;28;9266;-79
2022/10/31 03:48:44;;;;;;;;;76.67;62.33;;;;;16.51;63.81;100004.16;5028101;28;9268;-77
2022/10/31 03:51:20;;;;;;;;;78.00;64.00;;;;;16.48;64.02;100002.47;5009362;28;9410;-78
2022/10/31 03:53:57;;;;;;;;;75.33;57.00;;;;;16.52;63.38;100003.25;4991489;28;9328;-80
2022/10/31 03:56:35;;;;;;;;;78.00;63.67;;;;;16.50;63.71;100005.94;5027522;28;9262;-79
2022/10/31 03:59:09;;;;;;;;;78.25;62.75;;;;;16.41;63.63;100003.47;5007631;28;9269;-76
2022/10/31 04:01:44;;;;;;;;;72.33;57.00;;;;;16.41;63.94;100003.47;5026804;28;9406;-79
2022/10/31 04:04:14;;;;;;;;;76.67;61.67;;;;;16.42;63.79;100004.31;5045897;28;9324;-80
2022/10/31 04:06:47;;;;;;;;;79.67;62.33;;;;;16.48;63.19;100004.22;5025902;28;9506;-78
2022/10/31 04:09:17;;;;;;;;;77.33;64.33;;;;;16.48;62.97;100004.22;5012075;28;9469;-81
2022/10/31 04:11:49;;;;;;;;;83.00;65.00;;;;;16.48;63.23;100001.56;5026538;28;10000;-80
2022/10/31 04:14:48;;;;;;;;;95.75;85.00;;;;;16.46;63.19;100004.22;5028312;28;9264;-79
2022/10/31 04:17:20;;;;;;;;;80.00;66.67;;;;;16.44;63.08;100005.16;5028504;28;10547;-81
2022/10/31 04:19:49;;;;;;;;;76.33;61.67;;;;;16.42;63.35;99996.41;5019510;28;9139;-79
2022/10/31 04:22:20;;;;;;;;;71.33;56.33;;;;;16.45;63.00;100006.91;5027564;28;9262;-78
2022/10/31 04:24:49;;;;;;;;;79.67;63.00;;;;;16.49;63.14;100000.69;5027064;28;9227;-78
2022/10/31 04:27:19;;;;;;;;;80.33;67.00;;;;;16.47;63.42;99999.84;5012003;28;9502;-79
2022/10/31 04:29:47;;;;;;;;;88.33;71.33;;;;;16.45;63.10;99997.25;5028498;28;9181;-79
2022/10/31 04:32:19;;;;;;;;;85.00;75.75;;;;;16.48;63.14;100005.09;5028326;28;9413;-78
2022/10/31 04:34:48;;;;;;;;;84.00;71.00;;;;;16.52;63.13;100005.88;5000534;28;10468;-79
2022/10/31 04:37:16;;;;;;;;;78.33;64.00;;;;;16.54;62.97;100009.34;4984187;28;9653;-81
2022/10/31 04:39:46;;;;;;;;;78.00;61.67;;;;;16.56;63.35;100010.22;4969418;28;9529;-78
2022/10/31 04:42:35;;;;;;;;;87.50;74.50;;;;;16.57;62.99;100006.69;4936816;28;9594;-80
2022/10/31 04:45:07;;;;;;;;;83.25;71.25;;;;;16.54;63.08;100006.72;4933837;28;9654;-79
2022/10/31 04:47:37;;;;;;;;;85.00;71.75;;;;;16.55;63.37;100013.75;4949557;28;9668;-80
2022/10/31 04:50:07;;;;;;;;;83.00;65.00;;;;;16.53;63.39;100008.50;4942886;28;9663;-78
2022/10/31 04:52:40;;;;;;;;;96.50;87.25;;;;;16.53;63.49;100015.53;4965624;28;9674;-80
2022/10/31 04:55:12;;;;;;;;;87.75;77.75;;;;;16.56;63.54;100021.63;4967346;28;10612;-79
2022/10/31 04:57:59;;;;;;;;;82.25;67.00;;;;;16.55;62.93;100019.00;4968320;28;11039;-77
2022/10/31 05:00:28;;;;;;;;;81.67;63.67;;;;;16.53;63.23;100013.75;4967099;28;9720;-77
2022/10/31 05:02:59;;;;;;;;;79.00;65.25;;;;;16.50;63.04;100021.75;4989449;28;9605;-78
2022/10/31 05:05:30;;;;;;;;;82.25;70.75;;;;;16.47;63.24;100024.41;4951516;28;9595;-79
2022/10/31 05:08:02;;;;;;;;;93.50;80.75;;;;;16.44;63.06;100023.59;4968644;28;9568;-81
2022/10/31 05:10:33;;;;;;;;;84.75;77.50;;;;;16.44;63.77;100020.97;4967819;28;10590;-78
2022/10/31 05:13:05;;;;;;;;;69.75;54.75;;;;;16.36;63.63;100021.94;4968591;28;10010;-78
2022/10/31 05:15:50;;;;;;;;;78.25;61.00;;;;;16.37;64.08;100021.06;4967777;28;9772;-80
2022/10/31 05:18:38;;;;;;;;;78.00;65.00;;;;;16.38;63.67;100021.94;4969146;28;9698;-79
2022/10/31 05:21:24;;;;;;;;;80.33;66.33;;;;;16.41;63.57;100028.91;5041492;28;9274;-80
2022/10/31 05:23:58;;;;;;;;;132.75;114.25;;;;;16.45;63.99;100035.88;5009923;28;9343;-76
2022/10/31 05:26:28;;;;;;;;;85.50;73.50;;;;;16.40;63.91;100035.06;5024997;28;11574;-79
2022/10/31 05:28:57;;;;;;;;;78.00;63.00;;;;;16.33;64.23;100042.19;5027589;28;10834;-79
2022/10/31 05:31:26;;;;;;;;;77.33;62.33;;;;;16.31;63.74;100036.06;5028218;28;10070;-79
2022/10/31 05:33:55;;;;;;;;;81.33;64.33;;;;;16.28;63.80;100044.03;5061949;28;9252;-79
2022/10/31 05:36:42;;;;;;;;;79.00;59.00;;;;;16.23;63.69;100041.47;5044719;28;9538;-79
2022/10/31 05:39:13;;;;;;;;;75.67;58.00;;;;;16.18;64.01;100038.91;5012831;28;9161;-78
2022/10/31 05:41:47;;;;;;;;;78.00;65.00;;;;;16.12;63.69;100038.13;5029457;28;9085;-79
2022/10/31 05:44:21;;;;;;;;;76.33;58.00;;;;;16.10;64.04;100040.78;5028361;28;9844;-79
2022/10/31 05:47:08;;;;;;;;;66.00;52.00;;;;;16.04;64.03;100040.00;5028467;28;9462;-80
2022/10/31 05:49:57;;;;;;;;;68.75;55.50;;;;;15.99;63.69;100042.69;5024325;28;9162;-79
2022/10/31 05:52:56;;;;;;;;;75.00;60.00;;;;;16.06;63.72;100046.97;5015751;28;8882;-80
2022/10/31 05:55:32;;;;;;;;;120.00;112.75;;;;;16.02;64.01;100053.19;5005328;28;9038;-78
2022/10/31 05:58:19;;;;;;;;;82.00;66.50;;;;;16.11;63.71;100054.81;4988686;28;12690;-79
2022/10/31 06:00:59;;;;;;;;;75.33;58.00;;;;;16.09;63.96;100053.97;4995721;28;9571;-80
2022/10/31 06:03:28;;;;;;;;;80.00;62.00;;;;;16.02;64.01;100047.94;4991943;28;9173;-81
2022/10/31 06:05:58;;;;;;;;;75.00;59.67;;;;;16.02;63.98;100047.06;4992353;28;9364;-78
2022/10/31 06:08:46;;;;;;;;;71.67;58.00;;;;;16.07;64.00;100046.09;5024317;28;9239;-78
2022/10/31 06:11:20;;;;;;;;;74.00;58.33;;;;;16.20;63.79;100045.91;5009767;28;9040;-81
2022/10/31 06:14:02;;;;;;;;;80.00;63.33;;;;;16.16;63.43;100050.34;5008444;28;9188;-76
2022/10/31 06:16:52;;;;;;;;;76.00;60.00;;;;;16.16;63.55;100051.22;4992566;28;9221;-78
2022/10/31 06:19:39;;;;;;;;;75.67;62.33;;;;;16.14;63.64;100060.03;5006012;28;9185;-77
2022/10/31 06:22:12;;;;;;;;;73.00;57.67;;;;;16.24;63.24;100064.28;5007235;28;9285;-77
2022/10/31 06:24:40;;;;;;;;;82.00;64.33;;;;;16.22;63.20;100055.53;5007404;28;9610;-78
2022/10/31 06:27:22;;;;;;;;;72.67;57.33;;;;;16.26;63.15;100067.75;5004051;28;9327;-80
2022/10/31 06:29:52;;;;;;;;;77.33;64.00;;;;;16.30;63.17;100064.16;4992018;28;9105;-79
2022/10/31 06:32:32;;;;;;;;;78.00;58.67;;;;;16.23;63.14;100067.78;5008122;28;9196;-80
2022/10/31 06:35:02;;;;;;;;;76.67;59.00;;;;;16.36;62.58;100071.97;4998630;28;9207;-79
2022/10/31 06:37:30;;;;;;;;;80.00;64.67;;;;;16.44;62.82;100073.59;5031204;28;9166;-80
2022/10/31 06:40:07;;;;;;;;;82.33;67.33;;;;;16.56;62.80;100073.41;5015327;28;9286;-80
2022/10/31 06:43:00;;;;;;;;;74.67;62.00;;;;;16.74;62.25;100080.13;4996176;28;9117;-83
2022/10/31 06:45:31;;;;;;;;;74.33;59.33;;;;;16.72;62.33;100080.16;5009162;28;9417;-84
2022/10/31 06:48:20;;;;;;;;;80.00;67.50;;;;;16.82;61.96;100082.63;4956760;28;9341;-83
2022/10/31 06:51:18;;;;;;;;;80.00;65.33;;;;;16.84;61.10;100079.13;4953279;28;9504;-82
2022/10/31 06:53:50;;;;;;;;;82.00;69.75;;;;;16.50;62.04;100077.03;4985233;28;10170;-79
2022/10/31 06:56:19;;;;;;;;;82.25;66.25;;;;;16.69;61.58;100072.31;4985001;28;10610;-80
2022/10/31 06:58:52;;;;;;;;;82.75;70.75;;;;;16.55;62.03;100074.31;4964065;28;9647;-84
2022/10/31 07:01:36;;;;;;;;;83.75;72.00;;;;;16.69;62.39;100080.22;4951293;28;9813;-82
2022/10/31 07:04:05;;;;;;;;;82.75;74.00;;;;;16.80;61.80;100087.91;4984530;28;9746;-81
2022/10/31 07:06:36;;;;;;;;;78.75;65.50;;;;;16.97;61.63;100087.66;4968718;28;9684;-83
2022/10/31 07:09:05;;;;;;;;;82.50;74.00;;;;;17.04;61.29;100088.41;4985881;28;9675;-82
2022/10/31 07:11:34;;;;;;;;;87.50;74.00;;;;;17.15;60.94;100086.47;4973204;28;9902;-81
2022/10/31 07:14:03;;;;;;;;;80.50;68.75;;;;;17.30;60.50;100085.31;4950043;28;9805;-81
2022/10/31 07:16:32;;;;;;;;;82.75;72.00;;;;;17.37;60.37;100081.63;4961514;28;10026;-81
2022/10/31 07:19:07;;;;;;;;;83.75;72.50;;;;;17.43;60.03;100076.25;4939144;28;9947;-80
2022/10/31 07:21:35;;;;;;;;;86.00;76.50;;;;;17.49;59.70;100085.81;4914548;29;9839;-81
2022/10/31 07:24:06;;;;;;;;;86.25;78.50;;;;;17.57;60.02;100083.00;4938541;29;10057;-82
2022/10/31 07:26:42;;;;;;;;;85.25;78.25;;;;;17.61;60.06;100085.53;4992133;28;10308;-81
2022/10/31 07:29:11;;;;;;;;;85.00;77.00;;;;;17.69;59.98;100088.00;5026850;28;9885;-81
2022/10/31 07:31:40;;;;;;;;;87.50;76.00;;;;;17.73;59.42;100084.41;4999505;28;10173;-80
2022/10/31 07:34:18;;;;;;;;;89.75;81.25;;;;;17.78;59.90;100082.53;5009816;28;10340;-85
2022/10/31 07:37:05;;;;;;;;;86.00;79.25;;;;;17.85;59.69;100086.81;5029521;28;10354;-81
2022/10/31 07:39:37;;;;;;;;;93.25;81.75;;;;;17.87;59.66;100071.81;5025098;28;10355;-81
2022/10/31 07:42:08;;;;;;;;;92.00;87.00;;;;;17.97;59.90;100080.41;4994240;28;10315;-80
2022/10/31 07:44:39;;;;;;;;;94.50;84.25;;;;;18.06;59.65;100076.69;4995983;28;10562;-83
2022/10/31 07:47:27;;;;;;;;;84.00;75.00;;;;;18.10;59.33;100075.72;5045213;28;10611;-80
2022/10/31 07:50:11;;;;;;;;;90.50;80.25;;;;;16.75;63.79;100085.38;5011687;28;10369;-80
2022/10/31 07:53:01;;;;;;;;;88.00;83.75;;;;;16.51;65.05;100091.03;5010350;28;11716;-79
2022/10/31 07:55:45;;;;;;;;;87.25;83.00;;;;;16.41;65.69;100078.91;5011237;28;10598;-82
2022/10/31 07:58:16;;;;;;;;;92.50;83.75;;;;;15.90;67.63;100092.84;5009970;28;10830;-81
2022/10/31 08:00:48;;;;;;;;;92.75;89.50;;;;;15.77;68.93;100092.13;5042512;28;10762;-81
2022/10/31 08:03:27;;;;;;;;;107.00;96.25;;;;;15.98;68.14;100091.81;5009894;28;11078;-87
2022/10/31 08:06:12;;;;;;;;;98.25;90.50;;;;;16.08;68.32;100087.28;4993999;28;10882;-82
2022/10/31 08:09:00;;;;;;;;;97.25;86.25;;;;;16.64;66.47;100082.06;5025813;28;11114;-80
2022/10/31 08:11:29;;;;;;;;;95.50;87.75;;;;;17.02;65.44;100084.94;5010274;28;10694;-87
2022/10/31 08:13:58;;;;;;;;;94.00;83.50;;;;;17.30;64.17;100082.66;5009554;28;10714;-80
2022/10/31 08:16:28;;;;;;;;;96.75;87.75;;;;;17.56;63.00;100075.97;5014983;28;10913;-81
2022/10/31 08:19:01;;;;;;;;;98.50;88.00;;;;;17.82;62.17;100081.56;5043437;28;10944;-79
2022/10/31 08:21:34;;;;;;;;;96.50;85.50;;;;;18.06;61.78;100076.69;5017877;28;11060;-80
2022/10/31 08:24:03;;;;;;;;;101.75;88.00;;;;;18.20;61.17;100069.31;5032779;28;10812;-81
2022/10/31 08:26:33;;;;;;;;;104.50;90.50;;;;;18.40;60.57;100076.78;5010826;28;10996;-82
2022/10/31 08:29:03;;;;;;;;;102.75;89.50;;;;;18.61;59.96;100066.59;5000560;28;11129;-84
2022/10/31 08:31:35;;;;;;;;;99.25;88.00;;;;;18.67;59.05;100075.19;5011149;28;11223;-78
2022/10/31 08:34:28;;;;;;;;;95.25;86.00;;;;;18.87;58.84;100071.25;5033542;28;10784;-82
2022/10/31 08:37:19;;;;;;;;;89.25;81.25;;;;;19.02;58.45;100076.13;5025204;28;10897;-82
2022/10/31 08:39:53;;;;;;;;;93.75;85.25;;;;;19.19;58.19;100064.22;5014043;28;10745;-79
2022/10/31 08:42:23;;;;;;;;;102.75;94.50;;;;;19.23;57.63;100063.22;5029969;28;10936;-83
2022/10/31 08:44:53;;;;;;;;;102.50;92.75;;;;;18.96;58.08;100068.34;5028930;28;11183;-82
2022/10/31 08:47:23;;;;;;;;;100.50;97.00;;;;;18.53;58.93;100071.19;5046010;28;11759;-86
2022/10/31 08:49:52;;;;;;;;;102.50;91.25;;;;;18.28;60.00;100070.00;5029038;28;11286;-81
2022/10/31 08:52:42;;;;;;;;;95.75;89.75;;;;;18.09;60.59;100068.69;5051170;28;11526;-80
2022/10/31 08:55:31;;;;;;;;;103.50;93.75;;;;;18.15;60.32;100065.94;5029992;28;11322;-82
2022/10/31 08:58:06;;;;;;;;;87.75;83.00;;;;;18.51;59.47;100066.81;5010299;28;11350;-81
2022/10/31 09:00:41;;;;;;;;;90.75;84.75;;;;;18.72;58.75;100071.59;5008120;28;11149;-85
2022/10/31 09:03:22;;;;;;;;;86.75;81.50;;;;;19.07;58.37;100074.22;4984980;28;10730;-81
2022/10/31 09:05:55;;;;;;;;;95.50;91.00;;;;;19.31;57.85;100066.50;5026231;28;11850;-79
2022/10/31 09:08:26;;;;;;;;;94.25;86.50;;;;;19.59;57.93;100063.94;5006254;28;11661;-82
2022/10/31 09:10:57;;;;;;;;;90.00;87.50;;;;;19.81;57.12;100060.69;5031388;28;11880;-82
2022/10/31 09:13:46;;;;;;;;;102.25;92.75;;;;;19.99;56.27;100067.19;5046346;28;11057;-84
2022/10/31 09:16:43;;;;;;;;;108.00;96.00;;;;;20.21;55.90;100049.72;5051641;28;11238;-81
2022/10/31 09:19:19;;;;;;;;;89.50;82.00;;;;;20.39;55.50;100057.97;5034063;28;11155;-83
2022/10/31 09:21:48;;;;;;;;;99.75;94.25;;;;;20.49;54.76;100058.53;5013728;28;11948;-81
2022/10/31 09:24:18;;;;;;;;;96.75;91.50;;;;;20.55;54.84;100056.56;4998654;28;11542;-81
2022/10/31 09:26:47;;;;;;;;;101.00;93.25;;;;;20.68;54.71;100057.06;4998815;28;11143;-84
2022/10/31 09:29:20;;;;;;;;;96.00;93.25;;;;;20.70;54.59;100056.97;4992415;28;11586;-82
2022/10/31 09:31:57;;;;;;;;;94.75;88.50;;;;;20.70;54.54;100054.34;5006300;28;11280;-80
2022/10/31 09:34:29;;;;;;;;;98.25;94.50;;;;;20.83;54.23;100058.28;5039657;28;11304;-83
2022/10/31 09:37:06;;;;;;;;;98.75;91.50;;;;;20.88;54.33;100053.69;5028018;28;11392;-85
2022/10/31 09:39:37;;;;;;;;;95.25;88.25;;;;;20.86;54.58;100054.69;5041194;28;11680;-82
2022/10/31 09:42:39;;;;;;;;;108.25;96.75;;;;;21.06;54.59;100057.50;4999809;28;11358;-81
2022/10/31 09:45:23;;;;;;;;;92.00;91.50;;;;;21.12;54.74;100049.31;5027960;28;12434;-79
2022/10/31 09:48:10;;;;;;;;;102.50;95.50;;;;;21.28;54.40;100048.75;5043715;28;11592;-86
2022/10/31 09:51:04;;;;;;;;;105.25;96.50;;;;;21.38;53.91;100059.00;5029020;28;11611;-85
2022/10/31 09:53:44;;;;;;;;;101.00;93.25;;;;;21.39;53.67;100059.84;5029892;28;11701;-84
2022/10/31 09:56:22;;;;;;;;;99.75;92.75;;;;;21.50;53.06;100060.34;5026316;28;11658;-80
2022/10/31 09:58:57;;;;;;;;;107.50;96.25;;;;;21.45;53.20;100061.44;5013562;28;11577;-83
2022/10/31 10:01:39;;;;;;;;;111.00;100.50;;;;;21.67;52.98;100058.84;5054897;28;11607;-80
2022/10/31 10:04:26;;;;;;;;;96.25;87.50;;;;;21.80;52.82;100063.63;5044547;28;11625;-82
2022/10/31 10:07:06;;;;;;;;;104.75;98.50;;;;;21.82;52.70;100063.56;5014091;28;11187;-81
2022/10/31 10:09:44;;;;;;;;;114.50;103.75;;;;;21.90;52.38;100065.94;5032798;28;12514;-81
2022/10/31 10:13:00;;;;;;;;;99.75;92.50;;;;;22.04;52.23;100060.97;5053854;28;11515;-82
2022/10/31 10:16:01;;;;;;;;;86.25;78.25;;;;;22.14;51.58;100064.09;5034295;28;11326;-82
2022/10/31 10:18:44;;;;;;;;;104.75;98.50;;;;;21.99;51.83;100054.94;5024094;28;11277;-82
2022/10/31 10:21:26;;;;;;;;;107.25;96.25;;;;;22.10;51.72;100062.50;5007104;28;11272;-83
2022/10/31 10:24:10;;;;;;;;;108.00;101.00;;;;;22.15;51.27;100060.50;4980728;28;11599;-81
2022/10/31 10:26:44;;;;;;;;;101.00;93.00;;;;;22.16;51.29;100057.78;4976692;28;11416;-82
2022/10/31 10:29:29;;;;;;;;;100.00;90.25;;;;;22.38;51.06;100059.59;4977077;28;10987;-85
2022/10/31 10:32:03;;;;;;;;;103.00;90.00;;;;;22.35;50.97;100057.94;4976303;28;11319;-85
2022/10/31 10:34:38;;;;;;;;;105.75;96.00;;;;;22.47;50.57;100055.72;4993098;28;11152;-81
2022/10/31 10:37:22;;;;;;;;;107.50;95.75;;;;;22.48;50.67;100049.47;4989920;28;11118;-85
2022/10/31 10:39:56;;;;;;;;;106.25;97.50;;;;;22.48;50.55;100050.34;4977136;28;11175;-83
2022/10/31 10:48:15;;;;;;;;;101.75;94.00;;;;;22.77;49.67;100048.22;4995395;28;11215;-79
2022/10/31 10:50:49;;;;;;;;;111.25;100.75;;;;;22.73;49.01;100044.84;5026802;28;12046;-82
2022/10/31 10:53:38;;;;;;;;;112.25;98.50;;;;;22.94;49.20;100047.50;4974141;28;11632;-81
2022/10/31 10:56:16;;;;;;;;;111.25;101.75;;;;;23.05;49.12;100045.28;4999722;28;11433;-83
2022/10/31 10:58:45;;;;;;;;;103.25;98.00;;;;;23.07;48.37;100040.75;5045680;28;11433;-82
2022/10/31 11:01:16;;;;;;;;;100.00;91.00;;;;;23.12;48.46;100045.88;5014836;28;11343;-85
2022/10/31 11:03:45;;;;;;;;;113.25;100.75;;;;;23.17;48.18;100041.19;5051936;28;11045;-81
2022/10/31 11:06:21;;;;;;;;;102.50;94.25;;;;;23.25;47.95;100046.16;5036975;28;11676;-83
2022/10/31 11:08:50;;;;;;;;;116.50;99.75;;;;;23.22;48.07;100046.31;5041989;28;11109;-84
2022/10/31 11:11:31;;;;;;;;;101.75;90.75;;;;;23.40;47.60;100033.97;5042169;28;11345;-83
2022/10/31 11:14:04;;;;;;;;;107.00;97.00;;;;;23.42;47.66;100037.41;5063335;28;11294;-82
2022/10/31 11:16:37;;;;;;;;;100.75;91.00;;;;;23.56;47.41;100035.00;5055024;28;11375;-82
2022/10/31 11:19:20;;;;;;;;;96.75;85.00;;;;;23.79;47.24;100019.78;5057062;28;11274;-82
2022/10/31 11:21:49;;;;;;;;;99.75;89.25;;;;;23.75;46.78;100030.53;5032480;28;10963;-81
2022/10/31 11:24:25;;;;;;;;;97.00;91.25;;;;;23.86;46.52;100018.56;4995994;28;11297;-83
2022/10/31 11:27:14;;;;;;;;;94.25;86.00;;;;;24.05;46.46;100018.53;5005959;28;11248;-86
2022/10/31 11:29:43;;;;;;;;;92.50;83.50;;;;;23.93;46.14;100017.28;5012433;28;11230;-81
2022/10/31 11:32:23;;;;;;;;;95.50;87.25;;;;;24.04;46.10;100011.44;5012414;28;10979;-84
2022/10/31 11:34:55;;;;;;;;;93.50;86.50;;;;;23.88;46.10;100000.69;5018633;28;11082;-82
2022/10/31 11:37:27;;;;;;;;;100.75;87.50;;;;;23.92;46.25;99999.59;5007988;28;11095;-83
2022/10/31 11:39:59;;;;;;;;;89.50;82.75;;;;;24.02;45.98;99997.34;4992137;28;11303;-81
2022/10/31 11:42:35;;;;;;;;;93.75;84.50;;;;;24.03;45.91;99999.09;4992391;28;10837;-85
2022/10/31 11:45:15;;;;;;;;;90.50;84.25;;;;;24.03;46.08;99993.75;4994930;28;10764;-83
2022/10/31 11:47:49;;;;;;;;;94.00;83.25;;;;;24.04;45.98;99983.00;4992476;28;10790;-83
2022/10/31 11:50:27;;;;;;;;;93.25;86.75;;;;;24.03;46.13;99980.44;4977738;28;10834;-81
2022/10/31 11:52:56;;;;;;;;;92.75;84.25;;;;;24.03;45.76;99981.28;4993081;28;11095;-84
2022/10/31 11:55:36;;;;;;;;;99.00;92.25;;;;;24.09;46.28;99978.31;4982624;28;11063;-81
2022/10/31 11:58:18;;;;;;;;;97.75;88.25;;;;;24.05;46.23;99973.22;4971206;28;11823;-85